sensor_id;sensor_type;location;lat;lon;timestamp;pressure;altitude;pressure_sealevel;temperature;humidity
72428;BME280;60419;48.880;18.036;2024-02-26T00:02:28;98066.75;;;9.41;70.66
72428;BME280;60419;48.880;18.036;2024-02-26T00:05:14;98070.31;;;8.80;71.53
72428;BME280;60419;48.880;18.036;2024-02-26T00:07:59;98070.56;;;9.40;70.61
72428;BME280;60419;48.880;18.036;2024-02-26T00:10:44;98070.09;;;9.38;70.32
72428;BME280;60419;48.880;18.036;2024-02-26T00:13:30;98064.84;;;9.24;71.22
72428;BME280;60419;48.880;18.036;2024-02-26T00:16:15;98058.84;;;9.36;70.26
72428;BME280;60419;48.880;18.036;2024-02-26T00:19:01;98050.16;;;9.30;69.74
72428;BME280;60419;48.880;18.036;2024-02-26T00:21:46;98059.03;;;9.04;70.54
72428;BME280;60419;48.880;18.036;2024-02-26T00:24:32;98070.44;;;8.93;72.12
72428;BME280;60419;48.880;18.036;2024-02-26T00:27:17;98059.69;;;9.01;71.75
72428;BME280;60419;48.880;18.036;2024-02-26T00:30:03;98058.88;;;9.10;70.76
72428;BME280;60419;48.880;18.036;2024-02-26T00:32:48;98050.81;;;8.57;72.90
72428;BME280;60419;48.880;18.036;2024-02-26T00:35:34;98055.72;;;8.73;72.53
72428;BME280;60419;48.880;18.036;2024-02-26T00:38:19;98049.22;;;9.00;71.80
72428;BME280;60419;48.880;18.036;2024-02-26T00:41:05;98046.81;;;8.46;72.88
72428;BME280;60419;48.880;18.036;2024-02-26T00:43:51;98041.94;;;8.66;72.88
72428;BME280;60419;48.880;18.036;2024-02-26T00:46:36;98034.78;;;8.43;73.27
72428;BME280;60419;48.880;18.036;2024-02-26T00:49:21;98037.34;;;8.40;74.20
72428;BME280;60419;48.880;18.036;2024-02-26T00:52:07;98049.53;;;8.37;74.48
72428;BME280;60419;48.880;18.036;2024-02-26T00:54:52;98045.06;;;8.33;74.36
72428;BME280;60419;48.880;18.036;2024-02-26T00:57:38;98042.03;;;8.00;76.45
72428;BME280;60419;48.880;18.036;2024-02-26T01:00:23;98043.47;;;8.06;75.63
72428;BME280;60419;48.880;18.036;2024-02-26T01:03:08;98041.44;;;8.46;74.91
72428;BME280;60419;48.880;18.036;2024-02-26T01:05:55;98032.69;;;7.97;76.23
72428;BME280;60419;48.880;18.036;2024-02-26T01:08:41;98038.91;;;8.24;75.62
72428;BME280;60419;48.880;18.036;2024-02-26T01:11:26;98042.53;;;8.19;76.17
72428;BME280;60419;48.880;18.036;2024-02-26T01:14:11;98041.16;;;8.65;74.10
72428;BME280;60419;48.880;18.036;2024-02-26T01:16:57;98035.28;;;8.46;75.29
72428;BME280;60419;48.880;18.036;2024-02-26T01:19:42;98038.28;;;8.61;74.82
72428;BME280;60419;48.880;18.036;2024-02-26T01:22:28;98041.47;;;8.63;74.30
72428;BME280;60419;48.880;18.036;2024-02-26T01:25:14;98035.78;;;8.65;74.05
72428;BME280;60419;48.880;18.036;2024-02-26T01:28:00;98033.41;;;8.55;74.83
72428;BME280;60419;48.880;18.036;2024-02-26T01:30:46;98033.69;;;8.27;75.43
72428;BME280;60419;48.880;18.036;2024-02-26T01:33:31;98035.63;;;8.44;74.43
72428;BME280;60419;48.880;18.036;2024-02-26T01:36:17;98022.16;;;8.44;74.65
72428;BME280;60419;48.880;18.036;2024-02-26T01:39:02;98029.91;;;8.72;73.73
72428;BME280;60419;48.880;18.036;2024-02-26T01:41:48;98032.13;;;8.52;73.56
72428;BME280;60419;48.880;18.036;2024-02-26T01:44:34;98032.91;;;8.61;73.58
72428;BME280;60419;48.880;18.036;2024-02-26T01:47:19;98031.03;;;8.62;73.50
72428;BME280;60419;48.880;18.036;2024-02-26T01:50:05;98037.19;;;8.71;73.20
72428;BME280;60419;48.880;18.036;2024-02-26T01:52:52;98021.66;;;8.51;75.08
72428;BME280;60419;48.880;18.036;2024-02-26T01:55:39;98025.47;;;8.76;73.89
72428;BME280;60419;48.880;18.036;2024-02-26T01:58:25;98018.47;;;9.01;72.97
72428;BME280;60419;48.880;18.036;2024-02-26T02:01:12;98024.66;;;9.01;72.01
72428;BME280;60419;48.880;18.036;2024-02-26T02:03:59;98020.56;;;8.86;73.45
72428;BME280;60419;48.880;18.036;2024-02-26T02:06:45;98029.44;;;8.61;74.70
72428;BME280;60419;48.880;18.036;2024-02-26T02:09:30;98016.63;;;8.75;73.89
72428;BME280;60419;48.880;18.036;2024-02-26T02:12:16;98026.41;;;8.28;75.45
72428;BME280;60419;48.880;18.036;2024-02-26T02:15:03;98022.38;;;7.99;77.32
72428;BME280;60419;48.880;18.036;2024-02-26T02:17:49;98020.97;;;8.02;77.77
72428;BME280;60419;48.880;18.036;2024-02-26T02:20:35;98018.59;;;8.00;77.45
72428;BME280;60419;48.880;18.036;2024-02-26T02:23:20;98013.22;;;8.00;77.11
72428;BME280;60419;48.880;18.036;2024-02-26T02:26:06;98015.66;;;7.70;78.56
72428;BME280;60419;48.880;18.036;2024-02-26T02:28:51;98018.91;;;7.90;78.08
72428;BME280;60419;48.880;18.036;2024-02-26T02:31:38;98006.56;;;7.97;77.59
72428;BME280;60419;48.880;18.036;2024-02-26T02:34:23;98011.59;;;7.82;78.68
72428;BME280;60419;48.880;18.036;2024-02-26T02:37:09;98000.56;;;8.09;77.25
72428;BME280;60419;48.880;18.036;2024-02-26T02:39:54;98004.41;;;8.34;76.39
72428;BME280;60419;48.880;18.036;2024-02-26T02:42:40;98000.59;;;8.35;76.54
72428;BME280;60419;48.880;18.036;2024-02-26T02:45:25;97985.84;;;8.94;73.79
72428;BME280;60419;48.880;18.036;2024-02-26T02:48:11;97983.69;;;8.52;74.16
72428;BME280;60419;48.880;18.036;2024-02-26T02:50:56;97988.88;;;8.83;73.67
72428;BME280;60419;48.880;18.036;2024-02-26T02:53:42;98003.22;;;9.31;72.24
72428;BME280;60419;48.880;18.036;2024-02-26T02:56:27;98000.13;;;8.16;75.12
72428;BME280;60419;48.880;18.036;2024-02-26T02:59:13;98011.22;;;8.67;75.21
72428;BME280;60419;48.880;18.036;2024-02-26T03:01:58;97989.66;;;9.01;73.21
72428;BME280;60419;48.880;18.036;2024-02-26T03:04:43;97999.16;;;8.99;73.10
72428;BME280;60419;48.880;18.036;2024-02-26T03:07:29;97980.75;;;9.10;71.67
72428;BME280;60419;48.880;18.036;2024-02-26T03:10:14;97989.38;;;9.41;71.16
72428;BME280;60419;48.880;18.036;2024-02-26T03:13:00;97996.06;;;9.73;70.14
72428;BME280;60419;48.880;18.036;2024-02-26T03:15:45;97989.63;;;9.57;70.47
72428;BME280;60419;48.880;18.036;2024-02-26T03:18:30;97987.41;;;9.89;69.13
72428;BME280;60419;48.880;18.036;2024-02-26T03:21:16;97979.81;;;10.12;68.08
72428;BME280;60419;48.880;18.036;2024-02-26T03:24:01;97967.56;;;10.14;67.55
72428;BME280;60419;48.880;18.036;2024-02-26T03:26:47;97962.66;;;9.87;68.25
72428;BME280;60419;48.880;18.036;2024-02-26T03:29:32;97964.19;;;9.97;68.02
72428;BME280;60419;48.880;18.036;2024-02-26T03:32:17;97963.28;;;9.63;68.89
72428;BME280;60419;48.880;18.036;2024-02-26T03:35:03;97958.25;;;9.52;69.48
72428;BME280;60419;48.880;18.036;2024-02-26T03:37:48;97947.69;;;8.83;72.07
72428;BME280;60419;48.880;18.036;2024-02-26T03:40:35;97942.13;;;8.97;71.52
72428;BME280;60419;48.880;18.036;2024-02-26T03:43:21;97949.16;;;8.11;75.51
72428;BME280;60419;48.880;18.036;2024-02-26T03:46:09;97922.84;;;8.69;73.02
72428;BME280;60419;48.880;18.036;2024-02-26T03:48:58;97931.66;;;9.04;70.91
72428;BME280;60419;48.880;18.036;2024-02-26T03:51:44;97924.19;;;8.10;74.05
72428;BME280;60419;48.880;18.036;2024-02-26T03:54:29;97929.47;;;8.80;72.37
72428;BME280;60419;48.880;18.036;2024-02-26T03:57:15;97934.50;;;8.90;71.67
72428;BME280;60419;48.880;18.036;2024-02-26T04:00:00;97938.75;;;9.08;70.51
72428;BME280;60419;48.880;18.036;2024-02-26T04:02:49;97940.50;;;9.04;70.80
72428;BME280;60419;48.880;18.036;2024-02-26T04:05:34;97940.25;;;8.71;72.07
72428;BME280;60419;48.880;18.036;2024-02-26T04:08:20;97924.66;;;8.21;73.61
72428;BME280;60419;48.880;18.036;2024-02-26T04:11:05;97943.94;;;8.49;74.02
72428;BME280;60419;48.880;18.036;2024-02-26T04:13:52;97939.03;;;8.08;74.18
72428;BME280;60419;48.880;18.036;2024-02-26T04:16:37;97945.97;;;7.83;76.13
72428;BME280;60419;48.880;18.036;2024-02-26T04:19:23;97948.31;;;7.75;76.78
72428;BME280;60419;48.880;18.036;2024-02-26T04:22:10;97947.03;;;7.56;77.26
72428;BME280;60419;48.880;18.036;2024-02-26T04:24:56;97946.25;;;7.64;77.76
72428;BME280;60419;48.880;18.036;2024-02-26T04:27:41;97942.47;;;7.33;78.36
72428;BME280;60419;48.880;18.036;2024-02-26T04:30:27;97950.00;;;7.54;78.43
72428;BME280;60419;48.880;18.036;2024-02-26T04:33:12;97952.03;;;7.48;78.73
72428;BME280;60419;48.880;18.036;2024-02-26T04:35:57;97951.16;;;7.30;78.89
72428;BME280;60419;48.880;18.036;2024-02-26T04:38:43;97943.63;;;7.41;79.40
72428;BME280;60419;48.880;18.036;2024-02-26T04:41:29;97952.56;;;7.59;78.53
72428;BME280;60419;48.880;18.036;2024-02-26T04:44:14;97951.13;;;7.53;78.50
72428;BME280;60419;48.880;18.036;2024-02-26T04:46:59;97945.13;;;7.65;77.80
72428;BME280;60419;48.880;18.036;2024-02-26T04:49:46;97933.44;;;7.61;77.01
72428;BME280;60419;48.880;18.036;2024-02-26T04:52:32;97937.78;;;8.14;75.66
72428;BME280;60419;48.880;18.036;2024-02-26T04:55:17;97937.78;;;8.31;74.60
72428;BME280;60419;48.880;18.036;2024-02-26T04:58:03;97897.69;;;7.51;76.36
72428;BME280;60419;48.880;18.036;2024-02-26T05:00:48;97945.22;;;8.26;74.51
72428;BME280;60419;48.880;18.036;2024-02-26T05:03:34;97950.91;;;7.98;75.09
72428;BME280;60419;48.880;18.036;2024-02-26T05:06:19;97955.47;;;8.15;75.27
72428;BME280;60419;48.880;18.036;2024-02-26T05:09:05;97938.84;;;7.78;76.39
72428;BME280;60419;48.880;18.036;2024-02-26T05:11:50;97946.41;;;7.67;77.31
72428;BME280;60419;48.880;18.036;2024-02-26T05:14:35;97944.53;;;7.76;76.37
72428;BME280;60419;48.880;18.036;2024-02-26T05:17:21;97955.25;;;7.68;77.20
72428;BME280;60419;48.880;18.036;2024-02-26T05:20:06;97935.09;;;7.39;78.16
72428;BME280;60419;48.880;18.036;2024-02-26T05:22:53;97940.09;;;7.72;77.05
72428;BME280;60419;48.880;18.036;2024-02-26T05:25:39;97930.75;;;7.69;76.38
72428;BME280;60419;48.880;18.036;2024-02-26T05:28:26;97938.72;;;8.01;76.04
72428;BME280;60419;48.880;18.036;2024-02-26T05:31:15;97936.94;;;7.70;76.53
72428;BME280;60419;48.880;18.036;2024-02-26T05:34:00;97948.38;;;7.44;78.06
72428;BME280;60419;48.880;18.036;2024-02-26T05:36:46;97949.50;;;7.43;78.31
72428;BME280;60419;48.880;18.036;2024-02-26T05:39:31;97937.25;;;7.28;79.15
72428;BME280;60419;48.880;18.036;2024-02-26T05:42:17;97946.09;;;7.69;77.60
72428;BME280;60419;48.880;18.036;2024-02-26T05:45:02;97957.63;;;7.61;78.25
72428;BME280;60419;48.880;18.036;2024-02-26T05:47:51;97959.69;;;7.64;77.93
72428;BME280;60419;48.880;18.036;2024-02-26T05:50:36;97953.03;;;7.61;78.19
72428;BME280;60419;48.880;18.036;2024-02-26T05:53:21;97976.94;;;7.71;77.73
72428;BME280;60419;48.880;18.036;2024-02-26T05:56:07;97965.22;;;7.67;78.11
72428;BME280;60419;48.880;18.036;2024-02-26T05:58:52;97976.44;;;7.69;78.32
72428;BME280;60419;48.880;18.036;2024-02-26T06:01:39;97970.19;;;8.00;77.18
72428;BME280;60419;48.880;18.036;2024-02-26T06:04:24;97974.16;;;8.11;76.38
72428;BME280;60419;48.880;18.036;2024-02-26T06:07:10;97966.56;;;8.05;76.21
72428;BME280;60419;48.880;18.036;2024-02-26T06:09:55;97983.31;;;7.93;77.20
72428;BME280;60419;48.880;18.036;2024-02-26T06:12:41;97983.69;;;8.26;75.71
72428;BME280;60419;48.880;18.036;2024-02-26T06:15:26;97987.16;;;8.18;75.97
72428;BME280;60419;48.880;18.036;2024-02-26T06:18:11;97983.50;;;8.75;74.68
72428;BME280;60419;48.880;18.036;2024-02-26T06:20:57;97995.06;;;8.23;75.59
72428;BME280;60419;48.880;18.036;2024-02-26T06:23:42;97990.81;;;8.57;74.18
72428;BME280;60419;48.880;18.036;2024-02-26T06:26:28;97982.56;;;8.45;74.76
72428;BME280;60419;48.880;18.036;2024-02-26T06:29:14;97981.91;;;8.56;74.12
72428;BME280;60419;48.880;18.036;2024-02-26T06:32:00;97991.09;;;8.38;75.36
72428;BME280;60419;48.880;18.036;2024-02-26T06:34:45;97987.16;;;8.27;76.14
72428;BME280;60419;48.880;18.036;2024-02-26T06:37:31;97996.34;;;8.26;76.32
72428;BME280;60419;48.880;18.036;2024-02-26T06:40:16;98002.03;;;8.33;76.34
72428;BME280;60419;48.880;18.036;2024-02-26T06:43:01;97998.22;;;8.25;77.43
72428;BME280;60419;48.880;18.036;2024-02-26T06:45:47;98002.66;;;8.30;76.95
72428;BME280;60419;48.880;18.036;2024-02-26T06:48:32;98002.84;;;8.33;76.92
72428;BME280;60419;48.880;18.036;2024-02-26T06:51:18;97997.47;;;8.59;75.80
72428;BME280;60419;48.880;18.036;2024-02-26T06:54:03;98001.06;;;8.46;75.88
72428;BME280;60419;48.880;18.036;2024-02-26T06:56:49;98009.00;;;8.42;76.25
72428;BME280;60419;48.880;18.036;2024-02-26T06:59:34;97981.59;;;8.40;76.28
72428;BME280;60419;48.880;18.036;2024-02-26T07:02:19;97993.78;;;8.81;74.21
72428;BME280;60419;48.880;18.036;2024-02-26T07:05:05;98008.19;;;8.94;74.64
72428;BME280;60419;48.880;18.036;2024-02-26T07:07:50;98006.25;;;9.12;73.91
72428;BME280;60419;48.880;18.036;2024-02-26T07:10:36;98005.97;;;8.96;74.54
72428;BME280;60419;48.880;18.036;2024-02-26T07:13:21;98004.22;;;9.09;73.70
72428;BME280;60419;48.880;18.036;2024-02-26T07:16:09;97999.28;;;9.02;74.19
72428;BME280;60419;48.880;18.036;2024-02-26T07:18:54;98006.13;;;8.82;74.74
72428;BME280;60419;48.880;18.036;2024-02-26T07:21:39;98011.22;;;8.75;75.14
72428;BME280;60419;48.880;18.036;2024-02-26T07:24:25;98015.47;;;8.85;75.73
72428;BME280;60419;48.880;18.036;2024-02-26T07:27:11;98010.53;;;8.96;75.05
72428;BME280;60419;48.880;18.036;2024-02-26T07:29:56;98012.34;;;8.57;76.43
72428;BME280;60419;48.880;18.036;2024-02-26T07:32:45;97995.06;;;8.40;76.31
72428;BME280;60419;48.880;18.036;2024-02-26T07:35:30;98009.97;;;8.55;76.39
72428;BME280;60419;48.880;18.036;2024-02-26T07:38:17;98006.94;;;8.48;76.89
72428;BME280;60419;48.880;18.036;2024-02-26T07:41:03;98002.34;;;8.49;76.64
72428;BME280;60419;48.880;18.036;2024-02-26T07:43:48;98020.25;;;8.62;76.85
72428;BME280;60419;48.880;18.036;2024-02-26T07:46:34;98026.44;;;8.62;76.94
72428;BME280;60419;48.880;18.036;2024-02-26T07:49:19;98021.81;;;8.89;75.99
72428;BME280;60419;48.880;18.036;2024-02-26T07:52:05;98007.41;;;8.94;75.86
72428;BME280;60419;48.880;18.036;2024-02-26T07:54:50;97986.28;;;9.13;74.98
72428;BME280;60419;48.880;18.036;2024-02-26T07:57:36;98011.69;;;9.50;73.90
72428;BME280;60419;48.880;18.036;2024-02-26T08:00:21;98012.56;;;9.25;75.25
72428;BME280;60419;48.880;18.036;2024-02-26T08:03:07;98020.81;;;9.28;75.27
72428;BME280;60419;48.880;18.036;2024-02-26T08:05:53;98020.81;;;9.28;75.05
72428;BME280;60419;48.880;18.036;2024-02-26T08:08:38;97992.97;;;8.90;76.52
72428;BME280;60419;48.880;18.036;2024-02-26T08:11:23;98018.00;;;8.99;76.66
72428;BME280;60419;48.880;18.036;2024-02-26T08:14:09;98004.22;;;8.92;77.46
72428;BME280;60419;48.880;18.036;2024-02-26T08:16:54;98002.25;;;9.18;76.46
72428;BME280;60419;48.880;18.036;2024-02-26T08:19:40;98009.38;;;9.23;76.76
72428;BME280;60419;48.880;18.036;2024-02-26T08:22:25;98009.53;;;9.26;76.76
72428;BME280;60419;48.880;18.036;2024-02-26T08:25:11;97999.22;;;9.37;75.79
72428;BME280;60419;48.880;18.036;2024-02-26T08:27:57;98011.25;;;9.40;76.23
72428;BME280;60419;48.880;18.036;2024-02-26T08:30:42;98003.22;;;9.22;77.01
72428;BME280;60419;48.880;18.036;2024-02-26T08:33:27;98003.59;;;9.59;75.76
72428;BME280;60419;48.880;18.036;2024-02-26T08:36:13;98015.81;;;9.86;75.23
72428;BME280;60419;48.880;18.036;2024-02-26T08:38:59;98024.63;;;9.75;75.43
72428;BME280;60419;48.880;18.036;2024-02-26T08:41:44;98023.41;;;9.93;75.14
72428;BME280;60419;48.880;18.036;2024-02-26T08:44:30;98018.19;;;10.17;74.06
72428;BME280;60419;48.880;18.036;2024-02-26T08:47:15;98010.44;;;10.16;73.99
72428;BME280;60419;48.880;18.036;2024-02-26T08:50:01;97996.47;;;10.14;73.75
72428;BME280;60419;48.880;18.036;2024-02-26T08:52:47;98009.78;;;9.89;74.92
72428;BME280;60419;48.880;18.036;2024-02-26T08:55:35;98008.56;;;10.08;74.42
72428;BME280;60419;48.880;18.036;2024-02-26T08:58:21;98007.47;;;10.30;73.13
72428;BME280;60419;48.880;18.036;2024-02-26T09:01:06;97997.72;;;10.37;73.52
72428;BME280;60419;48.880;18.036;2024-02-26T09:03:52;98016.28;;;10.39;73.57
72428;BME280;60419;48.880;18.036;2024-02-26T09:06:37;97996.72;;;10.00;74.00
72428;BME280;60419;48.880;18.036;2024-02-26T09:09:22;98011.66;;;9.98;75.15
72428;BME280;60419;48.880;18.036;2024-02-26T09:12:10;98007.56;;;10.12;75.11
72428;BME280;60419;48.880;18.036;2024-02-26T09:14:55;98000.03;;;10.27;74.14
72428;BME280;60419;48.880;18.036;2024-02-26T09:17:42;98003.25;;;10.41;74.00
72428;BME280;60419;48.880;18.036;2024-02-26T09:20:28;98002.94;;;10.64;72.80
72428;BME280;60419;48.880;18.036;2024-02-26T09:23:13;98004.84;;;10.63;72.75
72428;BME280;60419;48.880;18.036;2024-02-26T09:25:59;98011.72;;;10.73;72.18
72428;BME280;60419;48.880;18.036;2024-02-26T09:28:44;97936.69;;;10.45;71.57
72428;BME280;60419;48.880;18.036;2024-02-26T09:31:30;97999.03;;;10.73;72.83
72428;BME280;60419;48.880;18.036;2024-02-26T09:34:16;97998.81;;;10.99;71.21
72428;BME280;60419;48.880;18.036;2024-02-26T09:37:01;98009.84;;;10.94;70.41
72428;BME280;60419;48.880;18.036;2024-02-26T09:39:46;97996.28;;;11.27;69.16
72428;BME280;60419;48.880;18.036;2024-02-26T09:42:32;98005.06;;;11.24;69.92
72428;BME280;60419;48.880;18.036;2024-02-26T09:45:21;97992.81;;;11.39;69.28
72428;BME280;60419;48.880;18.036;2024-02-26T09:48:08;98002.66;;;11.68;67.51
72428;BME280;60419;48.880;18.036;2024-02-26T09:50:55;98000.63;;;11.65;66.75
72428;BME280;60419;48.880;18.036;2024-02-26T09:53:43;97997.66;;;11.34;67.85
72428;BME280;60419;48.880;18.036;2024-02-26T09:56:30;97994.63;;;11.47;66.87
72428;BME280;60419;48.880;18.036;2024-02-26T09:59:18;98012.63;;;11.43;65.52
72428;BME280;60419;48.880;18.036;2024-02-26T10:02:04;98013.81;;;11.55;66.61
72428;BME280;60419;48.880;18.036;2024-02-26T10:04:49;98013.88;;;11.46;66.13
72428;BME280;60419;48.880;18.036;2024-02-26T10:07:37;98009.81;;;11.40;64.96
72428;BME280;60419;48.880;18.036;2024-02-26T10:10:23;98024.38;;;11.02;66.54
72428;BME280;60419;48.880;18.036;2024-02-26T10:13:09;98014.25;;;11.57;66.19
72428;BME280;60419;48.880;18.036;2024-02-26T10:15:56;98016.50;;;11.91;64.66
72428;BME280;60419;48.880;18.036;2024-02-26T10:18:52;98014.81;;;11.62;65.49
72428;BME280;60419;48.880;18.036;2024-02-26T10:21:38;98019.91;;;11.76;65.30
72428;BME280;60419;48.880;18.036;2024-02-26T10:24:25;98030.47;;;11.57;65.21
72428;BME280;60419;48.880;18.036;2024-02-26T10:27:11;98023.59;;;11.47;65.20
72428;BME280;60419;48.880;18.036;2024-02-26T10:29:57;98015.50;;;11.59;65.49
72428;BME280;60419;48.880;18.036;2024-02-26T10:32:43;98017.78;;;11.24;66.34
72428;BME280;60419;48.880;18.036;2024-02-26T10:35:30;97991.47;;;11.45;66.05
72428;BME280;60419;48.880;18.036;2024-02-26T10:38:17;98011.66;;;11.85;64.68
72428;BME280;60419;48.880;18.036;2024-02-26T10:41:13;98014.81;;;11.75;64.90
72428;BME280;60419;48.880;18.036;2024-02-26T10:44:00;98019.78;;;11.60;64.85
72428;BME280;60419;48.880;18.036;2024-02-26T10:46:49;98010.53;;;11.74;65.48
72428;BME280;60419;48.880;18.036;2024-02-26T10:49:35;98013.59;;;11.97;64.51
72428;BME280;60419;48.880;18.036;2024-02-26T10:52:22;98001.41;;;11.78;64.25
72428;BME280;60419;48.880;18.036;2024-02-26T10:55:15;98012.09;;;12.11;63.67
72428;BME280;60419;48.880;18.036;2024-02-26T10:58:01;98014.13;;;12.14;63.57
72428;BME280;60419;48.880;18.036;2024-02-26T11:00:50;98005.09;;;11.98;63.19
72428;BME280;60419;48.880;18.036;2024-02-26T11:03:36;98002.75;;;11.97;63.71
72428;BME280;60419;48.880;18.036;2024-02-26T11:06:22;98003.66;;;11.88;64.22
72428;BME280;60419;48.880;18.036;2024-02-26T11:09:11;98006.31;;;12.25;62.80
72428;BME280;60419;48.880;18.036;2024-02-26T11:11:58;98000.34;;;12.32;63.56
72428;BME280;60419;48.880;18.036;2024-02-26T11:14:46;97979.19;;;12.50;62.12
72428;BME280;60419;48.880;18.036;2024-02-26T11:17:32;98000.69;;;12.99;61.35
72428;BME280;60419;48.880;18.036;2024-02-26T11:20:19;97976.22;;;13.11;65.10
72428;BME280;60419;48.880;18.036;2024-02-26T11:23:06;97992.75;;;13.06;61.29
72428;BME280;60419;48.880;18.036;2024-02-26T11:25:54;97988.91;;;13.07;61.16
72428;BME280;60419;48.880;18.036;2024-02-26T11:28:40;97979.22;;;12.78;61.25
72428;BME280;60419;48.880;18.036;2024-02-26T11:31:26;97979.72;;;13.12;60.77
72428;BME280;60419;48.880;18.036;2024-02-26T11:34:12;97965.34;;;12.79;60.78
72428;BME280;60419;48.880;18.036;2024-02-26T11:37:09;97964.50;;;12.35;61.74
72428;BME280;60419;48.880;18.036;2024-02-26T11:39:54;97981.72;;;12.71;61.40
72428;BME280;60419;48.880;18.036;2024-02-26T11:42:49;97970.25;;;12.90;61.36
72428;BME280;60419;48.880;18.036;2024-02-26T11:48:24;97948.66;;;12.93;59.12
72428;BME280;60419;48.880;18.036;2024-02-26T11:51:10;97964.19;;;12.81;59.13
72428;BME280;60419;48.880;18.036;2024-02-26T11:53:56;97971.16;;;13.10;58.65
72428;BME280;60419;48.880;18.036;2024-02-26T11:56:42;97964.69;;;13.14;57.29
72428;BME280;60419;48.880;18.036;2024-02-26T11:59:37;97960.50;;;13.64;55.90
72428;BME280;60419;48.880;18.036;2024-02-26T12:02:46;97959.88;;;13.87;55.70
72428;BME280;60419;48.880;18.036;2024-02-26T12:05:33;97955.34;;;13.59;57.05
72428;BME280;60419;48.880;18.036;2024-02-26T12:08:21;97946.22;;;13.36;55.23
72428;BME280;60419;48.880;18.036;2024-02-26T12:11:14;97941.06;;;13.15;55.88
72428;BME280;60419;48.880;18.036;2024-02-26T12:14:00;97949.31;;;13.50;55.50
72428;BME280;60419;48.880;18.036;2024-02-26T12:16:47;97941.00;;;13.43;54.67
72428;BME280;60419;48.880;18.036;2024-02-26T12:19:35;97947.97;;;13.44;55.20
72428;BME280;60419;48.880;18.036;2024-02-26T12:22:21;97945.66;;;13.58;55.31
72428;BME280;60419;48.880;18.036;2024-02-26T12:25:09;97950.44;;;13.65;55.67
72428;BME280;60419;48.880;18.036;2024-02-26T12:27:55;97947.31;;;13.98;54.16
72428;BME280;60419;48.880;18.036;2024-02-26T12:30:40;97945.03;;;14.00;52.99
72428;BME280;60419;48.880;18.036;2024-02-26T12:33:26;97933.81;;;13.66;55.00
72428;BME280;60419;48.880;18.036;2024-02-26T12:36:12;97946.41;;;13.43;55.38
72428;BME280;60419;48.880;18.036;2024-02-26T12:38:58;97941.25;;;13.22;55.76
72428;BME280;60419;48.880;18.036;2024-02-26T12:41:45;97944.75;;;13.38;55.66
72428;BME280;60419;48.880;18.036;2024-02-26T12:44:34;97940.47;;;13.37;56.18
72428;BME280;60419;48.880;18.036;2024-02-26T12:47:19;97945.44;;;13.67;56.07
72428;BME280;60419;48.880;18.036;2024-02-26T12:50:06;97951.91;;;12.99;56.52
72428;BME280;60419;48.880;18.036;2024-02-26T12:52:51;97927.78;;;13.26;56.92
72428;BME280;60419;48.880;18.036;2024-02-26T12:55:38;97949.13;;;13.27;57.18
72428;BME280;60419;48.880;18.036;2024-02-26T12:58:25;97958.41;;;13.42;56.59
72428;BME280;60419;48.880;18.036;2024-02-26T13:01:15;97938.63;;;13.41;55.58
72428;BME280;60419;48.880;18.036;2024-02-26T13:04:02;97957.88;;;13.52;54.58
72428;BME280;60419;48.880;18.036;2024-02-26T13:06:51;97955.19;;;13.68;53.97
72428;BME280;60419;48.880;18.036;2024-02-26T13:09:37;97942.41;;;13.69;54.03
72428;BME280;60419;48.880;18.036;2024-02-26T13:12:23;97939.69;;;13.37;54.89
72428;BME280;60419;48.880;18.036;2024-02-26T13:15:14;97943.97;;;13.06;55.16
72428;BME280;60419;48.880;18.036;2024-02-26T13:17:59;97949.72;;;13.20;55.05
72428;BME280;60419;48.880;18.036;2024-02-26T13:20:53;97934.41;;;12.96;55.99
72428;BME280;60419;48.880;18.036;2024-02-26T13:23:39;97940.47;;;13.37;55.87
72428;BME280;60419;48.880;18.036;2024-02-26T13:26:25;97959.28;;;13.30;55.64
72428;BME280;60419;48.880;18.036;2024-02-26T13:29:18;97939.50;;;13.14;56.48
72428;BME280;60419;48.880;18.036;2024-02-26T13:32:03;97947.91;;;13.25;57.31
72428;BME280;60419;48.880;18.036;2024-02-26T13:34:49;97950.28;;;13.26;56.47
72428;BME280;60419;48.880;18.036;2024-02-26T13:37:35;97937.94;;;13.29;56.15
72428;BME280;60419;48.880;18.036;2024-02-26T13:40:21;97937.00;;;13.53;55.22
72428;BME280;60419;48.880;18.036;2024-02-26T13:43:06;97932.94;;;13.31;55.73
72428;BME280;60419;48.880;18.036;2024-02-26T13:45:52;97959.22;;;13.58;56.86
72428;BME280;60419;48.880;18.036;2024-02-26T13:48:37;97955.00;;;13.61;57.68
72428;BME280;60419;48.880;18.036;2024-02-26T13:51:22;97942.66;;;13.63;58.01
72428;BME280;60419;48.880;18.036;2024-02-26T13:54:08;97940.91;;;13.39;58.20
72428;BME280;60419;48.880;18.036;2024-02-26T13:56:55;97935.06;;;13.21;58.61
72428;BME280;60419;48.880;18.036;2024-02-26T13:59:40;97932.59;;;13.16;58.79
72428;BME280;60419;48.880;18.036;2024-02-26T14:02:27;97927.25;;;13.04;58.61
72428;BME280;60419;48.880;18.036;2024-02-26T14:05:13;97946.69;;;12.78;60.21
72428;BME280;60419;48.880;18.036;2024-02-26T14:07:58;97925.50;;;12.96;59.69
72428;BME280;60419;48.880;18.036;2024-02-26T14:10:43;97949.38;;;12.62;60.92
72428;BME280;60419;48.880;18.036;2024-02-26T14:13:29;97931.34;;;12.98;59.88
72428;BME280;60419;48.880;18.036;2024-02-26T14:16:14;97950.16;;;12.63;61.50
72428;BME280;60419;48.880;18.036;2024-02-26T14:19:00;97951.16;;;12.86;60.58
72428;BME280;60419;48.880;18.036;2024-02-26T14:21:45;97955.03;;;12.85;60.89
72428;BME280;60419;48.880;18.036;2024-02-26T14:24:30;97951.38;;;12.93;60.95
72428;BME280;60419;48.880;18.036;2024-02-26T14:27:16;97945.84;;;12.74;62.08
72428;BME280;60419;48.880;18.036;2024-02-26T14:30:02;97963.75;;;12.78;61.94
72428;BME280;60419;48.880;18.036;2024-02-26T14:32:48;97948.28;;;12.51;62.39
72428;BME280;60419;48.880;18.036;2024-02-26T14:35:33;97962.44;;;12.72;61.65
72428;BME280;60419;48.880;18.036;2024-02-26T14:38:19;97954.00;;;12.90;61.69